Time;durP1;ratioP1;P1;durP2;ratioP2;P2;SDS_P1;SDS_P2;PMS_P1;PMS_P2;Temp;Humidity;BMP_temperature;BMP_pressure;BME280_temperature;BME280_humidity;BME280_pressure;Samples;Min_cycle;Max_cycle;Signal;HPM_P1;HPM_P2
2021/07/07 00:02:44;;;;;;;;;31.00;29.00;;;;;27.07;49.93;98536.50;6149248;28;96590;-59
2021/07/07 00:05:51;;;;;;;;;30.20;28.80;;;;;27.04;50.20;98531.63;6137472;28;97836;-59
2021/07/07 00:08:54;;;;;;;;;33.40;29.00;;;;;27.02;49.85;98545.03;6154096;28;97384;-60
2021/07/07 00:11:57;;;;;;;;;30.40;29.00;;;;;27.01;50.28;98533.13;6146729;28;97118;-60
2021/07/07 00:15:01;;;;;;;;;29.75;26.00;;;;;26.98;50.26;98536.56;6146682;28;97472;-61
2021/07/07 00:18:07;;;;;;;;;30.00;27.00;;;;;26.94;50.24;98534.81;6162594;28;96645;-60
2021/07/07 00:21:12;;;;;;;;;30.60;28.60;;;;;26.90;50.43;98539.41;6147112;28;96995;-60
2021/07/07 00:24:15;;;;;;;;;32.40;30.40;;;;;26.87;50.31;98538.13;6153211;28;96511;-61
2021/07/07 00:27:18;;;;;;;;;31.60;29.00;;;;;26.78;50.49;98526.28;6146046;28;97445;-60
2021/07/07 00:30:25;;;;;;;;;31.00;29.00;;;;;26.72;50.66;98522.91;6118193;28;97261;-60
2021/07/07 00:33:28;;;;;;;;;30.40;27.80;;;;;26.62;50.68;98531.59;6124530;28;97011;-60
2021/07/07 00:36:33;;;;;;;;;32.00;29.75;;;;;26.58;50.84;98538.97;6139013;28;96776;-60
2021/07/07 00:39:36;;;;;;;;;29.33;27.33;;;;;26.51;50.70;98526.78;6142865;28;97498;-62
2021/07/07 00:42:39;;;;;;;;;28.00;27.00;;;;;26.48;51.05;98539.34;6147598;28;97387;-60
2021/07/07 00:45:42;;;;;;;;;28.60;27.60;;;;;26.42;50.92;98531.56;6136375;28;97944;-60
2021/07/07 00:48:46;;;;;;;;;27.40;26.00;;;;;26.37;51.16;98538.09;6152192;28;96489;-60
2021/07/07 00:51:51;;;;;;;;;31.00;29.00;;;;;26.33;51.10;98534.38;6139351;28;97464;-59
2021/07/07 00:54:54;;;;;;;;;30.00;27.00;;;;;26.30;51.16;98532.28;6152917;28;97448;-60
2021/07/07 00:58:00;;;;;;;;;27.00;25.00;;;;;26.25;51.02;98536.03;6146220;28;97032;-59
2021/07/07 01:01:04;;;;;;;;;27.50;26.00;;;;;26.17;51.39;98544.34;6146156;28;97533;-60
2021/07/07 01:04:07;;;;;;;;;24.25;23.25;;;;;26.11;51.24;98534.63;6135336;28;97171;-59
2021/07/07 01:07:12;;;;;;;;;25.00;25.00;;;;;26.02;51.41;98542.94;6139565;28;97948;-60
2021/07/07 01:10:17;;;;;;;;;28.50;27.50;;;;;25.90;51.54;98540.09;6152004;28;96565;-59
2021/07/07 01:13:20;;;;;;;;;29.00;27.00;;;;;25.84;51.72;98547.72;6136995;28;97563;-61
2021/07/07 01:16:23;;;;;;;;;26.20;24.00;;;;;25.72;51.81;98536.53;6148677;28;97291;-60
2021/07/07 01:19:26;;;;;;;;;25.20;23.80;;;;;25.68;51.78;98534.78;6141529;28;97492;-60
2021/07/07 01:22:31;;;;;;;;;30.00;28.20;;;;;25.66;51.85;98537.84;6119515;28;98833;-59
2021/07/07 01:25:38;;;;;;;;;28.00;27.00;;;;;25.65;51.82;98533.50;6142145;28;97458;-60
2021/07/07 01:28:41;;;;;;;;;29.60;28.00;;;;;25.62;51.85;98536.91;6130573;28;96658;-60
2021/07/07 01:31:44;;;;;;;;;26.00;25.00;;;;;25.57;52.06;98536.25;6153321;28;97198;-61
2021/07/07 01:34:49;;;;;;;;;26.00;23.00;;;;;25.53;52.14;98536.06;6151136;28;98075;-62
2021/07/07 01:37:56;;;;;;;;;27.75;25.75;;;;;25.49;52.27;98537.88;6138637;28;96997;-60
2021/07/07 01:41:01;;;;;;;;;29.40;26.40;;;;;25.47;52.11;98537.38;6145590;28;97005;-60
2021/07/07 01:44:05;;;;;;;;;27.00;24.20;;;;;25.41;52.07;98536.75;6151968;28;97723;-61
2021/07/07 01:47:09;;;;;;;;;27.40;27.00;;;;;25.41;52.07;98538.72;6153069;28;97494;-62
2021/07/07 01:50:14;;;;;;;;;30.00;26.40;;;;;25.41;52.44;98535.94;6146648;28;96643;-61
2021/07/07 01:53:18;;;;;;;;;29.60;26.60;;;;;25.41;52.42;98535.94;6141947;28;97492;-61
2021/07/07 01:56:21;;;;;;;;;29.00;26.20;;;;;25.38;52.37;98537.41;6147778;28;98213;-62
2021/07/07 01:59:24;;;;;;;;;29.50;28.00;;;;;25.35;52.35;98528.97;6144452;28;96968;-62
2021/07/07 02:02:27;;;;;;;;;26.00;25.00;;;;;25.32;52.52;98529.63;6149096;28;97571;-61
2021/07/07 02:05:33;;;;;;;;;28.00;27.00;;;;;25.27;52.22;98533.34;6151648;28;97514;-61
2021/07/07 02:08:38;;;;;;;;;27.60;26.00;;;;;25.24;52.50;98542.28;6149348;28;96481;-62
2021/07/07 02:11:42;;;;;;;;;26.00;26.00;;;;;25.22;52.39;98540.97;6139076;28;97467;-61
2021/07/07 02:14:45;;;;;;;;;25.60;24.00;;;;;25.14;52.59;98537.09;6150894;28;98113;-62
2021/07/07 02:17:49;;;;;;;;;29.00;26.00;;;;;25.15;52.66;98535.16;6144177;28;96883;-62
2021/07/07 02:20:53;;;;;;;;;29.00;25.00;;;;;25.16;52.68;98536.78;6144888;28;96727;-62
2021/07/07 02:23:58;;;;;;;;;29.00;28.00;;;;;25.17;52.62;98541.97;6152178;28;97397;-61
2021/07/07 02:27:01;;;;;;;;;28.00;27.50;;;;;25.14;52.80;98539.88;6141369;28;97938;-60
2021/07/07 02:30:07;;;;;;;;;31.00;28.00;;;;;25.02;52.73;98535.00;6144734;28;96737;-62
2021/07/07 02:33:11;;;;;;;;;29.40;27.60;;;;;25.03;53.05;98544.88;6154359;28;97544;-60
2021/07/07 02:36:15;;;;;;;;;28.00;26.00;;;;;25.02;53.00;98540.50;6146141;28;97410;-62
2021/07/07 02:39:20;;;;;;;;;32.00;28.25;;;;;24.95;52.79;98537.44;6143710;28;96547;-61
2021/07/07 02:42:23;;;;;;;;;29.50;28.50;;;;;24.96;52.78;98547.34;6148740;28;97227;-60
2021/07/07 02:45:27;;;;;;;;;27.00;27.00;;;;;24.98;53.01;98545.06;6152045;28;96609;-62
2021/07/07 02:48:31;;;;;;;;;28.00;27.00;;;;;24.99;53.18;98543.09;6142214;28;97272;-61
2021/07/07 02:51:34;;;;;;;;;29.33;27.33;;;;;24.99;53.36;98551.38;6152003;28;97673;-61
2021/07/07 02:54:38;;;;;;;;;27.60;25.40;;;;;24.94;53.08;98557.88;6148807;28;96558;-62
2021/07/07 02:57:57;;;;;;;;;30.40;28.00;;;;;24.87;53.03;98565.84;6142698;28;96620;-60
2021/07/07 03:01:01;;;;;;;;;31.50;29.00;;;;;24.83;53.67;98564.78;6151770;28;96634;-60
2021/07/07 03:04:04;;;;;;;;;31.20;28.00;;;;;24.86;53.61;98574.38;6126828;28;96929;-60
2021/07/07 03:07:08;;;;;;;;;33.00;29.00;;;;;24.88;53.55;98566.63;6128924;28;96977;-61
2021/07/07 03:10:14;;;;;;;;;29.60;29.00;;;;;24.89;53.55;98566.31;6154734;28;97362;-62
2021/07/07 03:13:18;;;;;;;;;30.60;29.40;;;;;24.93;53.17;98567.28;6155702;28;97376;-62
2021/07/07 03:16:22;;;;;;;;;32.00;29.00;;;;;24.98;53.12;98571.81;6142049;28;97535;-60
2021/07/07 03:19:25;;;;;;;;;31.40;28.80;;;;;25.05;53.18;98574.91;6142803;28;97180;-61
2021/07/07 03:22:28;;;;;;;;;29.75;28.75;;;;;25.09;53.10;98586.09;6152664;28;97363;-61
2021/07/07 03:25:34;;;;;;;;;29.20;28.00;;;;;25.15;53.08;98585.63;6156846;28;96955;-62
2021/07/07 03:28:37;;;;;;;;;31.75;29.25;;;;;25.23;53.08;98582.06;6133315;28;96918;-61
2021/07/07 03:31:40;;;;;;;;;29.80;26.20;;;;;25.29;52.81;98585.47;6137985;28;97525;-62
2021/07/07 03:34:43;;;;;;;;;31.60;30.00;;;;;25.24;52.65;98569.06;6153361;28;96733;-60
2021/07/07 03:37:47;;;;;;;;;30.00;28.50;;;;;25.44;52.69;98584.97;6147893;28;97024;-60
2021/07/07 03:40:52;;;;;;;;;35.20;30.00;;;;;25.44;52.69;98591.31;6131299;28;97037;-61
2021/07/07 03:43:56;;;;;;;;;29.60;27.60;;;;;25.51;52.46;98595.53;6146428;28;96967;-62
2021/07/07 03:46:59;;;;;;;;;30.80;29.00;;;;;25.55;52.31;98594.56;6147487;28;97433;-62
2021/07/07 03:50:05;;;;;;;;;31.00;29.20;;;;;25.63;52.37;98596.50;6150555;28;97170;-61
2021/07/07 03:53:08;;;;;;;;;29.00;27.40;;;;;25.67;52.37;98593.88;6141120;28;96542;-62
2021/07/07 03:56:13;;;;;;;;;31.40;29.40;;;;;25.70;52.14;98594.06;6148830;28;97373;-60
2021/07/07 03:59:16;;;;;;;;;29.75;28.75;;;;;25.76;52.01;98598.25;6145324;28;97419;-60
2021/07/07 04:02:19;;;;;;;;;28.00;26.75;;;;;25.86;51.84;98597.09;6150050;28;97538;-60
2021/07/07 04:05:23;;;;;;;;;30.40;28.00;;;;;25.95;51.61;98597.09;6129241;28;96754;-60
2021/07/07 04:08:26;;;;;;;;;31.00;27.50;;;;;26.02;51.68;98605.66;6151429;28;97402;-61
2021/07/07 04:11:31;;;;;;;;;31.00;29.60;;;;;26.05;51.36;98607.75;6154766;28;96846;-61
2021/07/07 04:14:35;;;;;;;;;30.00;28.50;;;;;26.13;51.30;98609.69;6139208;28;96603;-61
2021/07/07 04:17:38;;;;;;;;;32.60;30.00;;;;;26.25;51.30;98610.66;6137598;28;97340;-62
2021/07/07 04:20:41;;;;;;;;;31.20;28.80;;;;;26.38;51.53;98616.31;6152575;28;98905;-62
2021/07/07 04:23:44;;;;;;;;;30.75;29.00;;;;;26.54;51.25;98612.63;6146216;28;97452;-62
2021/07/07 04:26:50;;;;;;;;;31.60;30.00;;;;;26.60;51.49;98627.09;6130548;28;96490;-62
2021/07/07 04:29:53;;;;;;;;;35.60;32.00;;;;;26.71;51.77;98626.38;6154357;28;96742;-62
2021/07/07 04:32:56;;;;;;;;;35.40;32.00;;;;;26.87;51.73;98628.59;6153917;28;96891;-60
2021/07/07 04:35:59;;;;;;;;;37.40;32.00;;;;;27.06;51.44;98629.78;6144353;28;97025;-61
2021/07/07 04:39:06;;;;;;;;;40.67;33.33;;;;;27.21;51.44;98622.84;6144093;28;97254;-63
2021/07/07 04:42:11;;;;;;;;;35.00;32.40;;;;;27.39;50.90;98629.84;6144552;28;96805;-61
2021/07/07 04:45:15;;;;;;;;;40.67;33.00;;;;;27.52;50.50;98630.72;6137789;28;97652;-61
2021/07/07 04:48:19;;;;;;;;;35.40;32.00;;;;;27.68;49.84;98631.75;6151050;28;97105;-62
2021/07/07 04:51:22;;;;;;;;;35.80;32.00;;;;;27.74;49.57;98616.53;6154037;28;96499;-61
2021/07/07 04:54:25;;;;;;;;;33.75;31.75;;;;;28.00;49.32;98632.91;6149302;28;97354;-62
2021/07/07 04:57:40;;;;;;;;;33.75;31.00;;;;;28.18;48.48;98633.53;6144939;28;97690;-60
2021/07/07 05:00:43;;;;;;;;;33.50;31.00;;;;;28.32;47.93;98643.16;6133107;28;97367;-61
2021/07/07 05:03:46;;;;;;;;;36.25;31.00;;;;;28.48;48.50;98637.75;6147077;28;96936;-63
2021/07/07 05:06:49;;;;;;;;;34.60;31.00;;;;;28.58;47.46;98639.25;6151724;28;97965;-63
2021/07/07 05:09:52;;;;;;;;;28.40;26.60;;;;;28.71;46.26;98640.88;6152408;28;96706;-61
2021/07/07 05:12:57;;;;;;;;;29.00;26.00;;;;;28.82;45.98;98647.59;6150416;28;96758;-63
2021/07/07 05:16:00;;;;;;;;;32.60;28.00;;;;;28.93;45.91;98648.72;6145750;28;97181;-61
2021/07/07 05:19:05;;;;;;;;;27.25;26.00;;;;;29.08;45.82;98644.44;6148377;28;96673;-62
2021/07/07 05:22:08;;;;;;;;;27.40;27.00;;;;;29.21;45.85;98646.06;6128039;28;99454;-68
2021/07/07 05:25:12;;;;;;;;;26.60;26.40;;;;;29.38;45.22;98647.75;6140411;28;96695;-59
2021/07/07 05:28:17;;;;;;;;;29.60;28.60;;;;;29.42;45.23;98651.47;6129604;28;97260;-60
2021/07/07 05:31:20;;;;;;;;;27.80;25.40;;;;;29.55;45.09;98648.31;6148085;28;97793;-61
2021/07/07 05:34:23;;;;;;;;;28.60;27.20;;;;;29.69;45.46;98647.91;6147782;28;97556;-61
2021/07/07 05:37:27;;;;;;;;;29.20;28.20;;;;;29.82;44.62;98663.34;6151925;28;97458;-61
2021/07/07 05:40:30;;;;;;;;;29.40;28.40;;;;;29.93;44.79;98652.56;6145886;28;96848;-62
2021/07/07 05:43:36;;;;;;;;;28.00;26.00;;;;;30.03;44.24;98649.28;6140907;28;96737;-61
2021/07/07 05:46:40;;;;;;;;;26.60;24.00;;;;;30.16;44.68;98655.56;6150570;28;97130;-61
2021/07/07 05:49:43;;;;;;;;;27.00;27.00;;;;;30.25;43.81;98651.44;6149964;28;97585;-61
2021/07/07 05:52:47;;;;;;;;;30.00;27.00;;;;;30.37;44.06;98656.94;6152213;28;97608;-61
2021/07/07 05:55:50;;;;;;;;;27.00;26.00;;;;;30.50;44.28;98655.72;6135781;28;97178;-61
2021/07/07 05:58:54;;;;;;;;;26.80;23.00;;;;;30.61;43.15;98656.00;6141100;28;97489;-59
2021/07/07 06:01:58;;;;;;;;;25.60;24.60;;;;;30.68;43.28;98649.81;6157434;28;98586;-60
2021/07/07 06:05:01;;;;;;;;;26.00;24.00;;;;;30.89;43.16;98655.88;6147077;28;97400;-61
2021/07/07 06:08:05;;;;;;;;;23.00;22.25;;;;;30.95;42.18;98663.59;6139834;28;97454;-62
2021/07/07 06:11:08;;;;;;;;;25.00;23.00;;;;;31.05;41.32;98659.47;6142341;28;97243;-60
2021/07/07 06:14:13;;;;;;;;;20.00;19.00;;;;;31.03;39.72;98661.03;6158256;28;97363;-61
2021/07/07 06:17:18;;;;;;;;;19.80;18.80;;;;;30.98;40.10;98659.31;6144627;28;97238;-60
2021/07/07 06:20:21;;;;;;;;;18.50;18.50;;;;;30.90;40.15;98646.34;6148419;28;96889;-61
2021/07/07 06:23:24;;;;;;;;;18.40;16.40;;;;;30.97;39.75;98655.72;6148485;28;96615;-61
2021/07/07 06:26:28;;;;;;;;;20.00;19.00;;;;;30.90;40.41;98629.66;6150086;28;97436;-61
2021/07/07 06:29:33;;;;;;;;;18.00;17.00;;;;;31.29;40.07;98664.81;6150958;28;97444;-60
2021/07/07 06:32:37;;;;;;;;;19.00;18.20;;;;;31.49;40.20;98665.66;6138858;28;98448;-60
2021/07/07 06:35:40;;;;;;;;;18.00;18.00;;;;;31.40;39.20;98665.84;6153005;28;97012;-60
2021/07/07 06:38:42;;;;;;;;;20.00;18.80;;;;;31.58;40.50;98674.63;6157520;28;98099;-61
2021/07/07 06:41:45;;;;;;;;;17.00;16.60;;;;;31.66;39.17;98672.81;6159089;28;97524;-60
2021/07/07 06:44:50;;;;;;;;;19.00;17.60;;;;;31.81;39.16;98664.34;6156036;28;96478;-60
2021/07/07 06:47:53;;;;;;;;;19.60;19.60;;;;;31.96;39.89;98670.25;6149644;28;96688;-61
2021/07/07 06:50:56;;;;;;;;;19.00;18.00;;;;;32.10;39.67;98663.00;6154155;28;97477;-60
2021/07/07 06:54:00;;;;;;;;;17.60;17.60;;;;;32.30;37.93;98677.72;6151071;28;97653;-61
2021/07/07 06:57:04;;;;;;;;;18.00;17.80;;;;;32.22;38.04;98648.03;6147317;28;96510;-61
2021/07/07 07:00:11;;;;;;;;;19.00;18.00;;;;;32.53;37.27;98672.94;6155763;28;97544;-61
2021/07/07 07:03:15;;;;;;;;;18.40;17.40;;;;;32.69;37.76;98675.63;6157910;28;96916;-60
2021/07/07 07:06:18;;;;;;;;;19.40;17.60;;;;;32.91;37.46;98674.78;6152739;28;96942;-60
2021/07/07 07:09:21;;;;;;;;;16.00;15.00;;;;;33.14;36.83;98676.72;6149229;28;97012;-61
2021/07/07 07:12:24;;;;;;;;;17.00;16.00;;;;;33.24;36.48;98674.13;6155079;28;96752;-61
2021/07/07 07:15:29;;;;;;;;;17.00;17.00;;;;;33.45;36.75;98680.03;6156937;28;96556;-60
2021/07/07 07:18:32;;;;;;;;;18.60;17.60;;;;;33.63;35.56;98680.25;6153209;28;97571;-59
2021/07/07 07:21:35;;;;;;;;;16.80;16.00;;;;;33.71;35.30;98679.22;6148766;28;98502;-59
2021/07/07 07:24:38;;;;;;;;;17.00;16.40;;;;;33.87;35.44;98673.38;6152132;28;96573;-61
2021/07/07 07:27:42;;;;;;;;;17.00;16.00;;;;;34.00;34.67;98669.16;6157058;28;96463;-61
2021/07/07 07:30:46;;;;;;;;;17.00;16.00;;;;;34.09;33.64;98669.66;6155106;28;96719;-59
2021/07/07 07:33:50;;;;;;;;;16.60;16.00;;;;;34.26;34.54;98668.25;6148541;28;97071;-60
2021/07/07 07:37:02;;;;;;;;;18.00;16.00;;;;;34.45;33.41;98664.47;6149200;28;96418;-61
2021/07/07 07:40:10;;;;;;;;;16.00;16.00;;;;;34.56;32.56;98666.16;6156143;28;96534;-60
2021/07/07 07:43:13;;;;;;;;;15.00;15.00;;;;;34.64;33.42;98667.03;6156055;28;97774;-61
2021/07/07 07:46:18;;;;;;;;;15.00;15.00;;;;;34.82;33.07;98672.81;6140683;28;97457;-60
2021/07/07 07:49:21;;;;;;;;;16.00;15.00;;;;;35.08;32.16;98670.63;6157110;28;97204;-61
2021/07/07 07:52:25;;;;;;;;;15.80;14.80;;;;;35.31;32.26;98672.38;6151905;28;97545;-59
2021/07/07 07:55:28;;;;;;;;;16.00;15.00;;;;;35.44;31.55;98668.84;6156595;28;96761;-60
2021/07/07 07:58:33;;;;;;;;;15.50;15.00;;;;;35.49;31.25;98673.28;6164686;28;97246;-60
2021/07/07 08:01:38;;;;;;;;;16.60;16.00;;;;;35.75;32.40;98677.84;6160327;28;97192;-61
2021/07/07 08:04:41;;;;;;;;;16.00;15.25;;;;;36.05;31.56;98690.41;6154255;28;97627;-61
2021/07/07 08:07:45;;;;;;;;;16.50;14.50;;;;;36.37;31.64;98695.31;6159414;28;97208;-59
2021/07/07 08:10:49;;;;;;;;;15.00;14.80;;;;;36.62;31.28;98687.78;6163137;28;96630;-59
2021/07/07 08:13:53;;;;;;;;;15.80;15.00;;;;;36.86;31.36;98683.38;6162901;28;97040;-61
2021/07/07 08:16:57;;;;;;;;;17.60;15.60;;;;;37.11;30.22;98680.56;6160138;28;98908;-59
2021/07/07 08:20:01;;;;;;;;;14.00;14.00;;;;;37.31;28.20;98681.75;6146719;28;100136;-59
2021/07/07 08:23:04;;;;;;;;;17.00;15.00;;;;;37.46;29.72;98690.94;6145521;28;98242;-59
2021/07/07 08:26:07;;;;;;;;;12.80;12.80;;;;;37.68;28.13;98684.09;6155102;28;96761;-61
2021/07/07 08:29:10;;;;;;;;;16.00;15.00;;;;;37.78;28.28;98686.03;6163866;28;97682;-60
2021/07/07 08:32:18;;;;;;;;;14.40;14.00;;;;;37.78;28.16;98686.03;6155874;28;97515;-60
2021/07/07 08:35:21;;;;;;;;;12.00;11.00;;;;;37.85;26.42;98691.66;6162296;28;96717;-61
2021/07/07 08:38:24;;;;;;;;;12.00;11.00;;;;;37.94;25.63;98692.00;6164566;28;97526;-60
2021/07/07 08:41:27;;;;;;;;;10.50;10.50;;;;;38.13;26.80;98687.91;6161798;28;96554;-59
2021/07/07 08:44:30;;;;;;;;;11.40;11.40;;;;;38.27;25.49;98689.88;6157867;28;96634;-61
2021/07/07 08:47:37;;;;;;;;;11.20;11.20;;;;;38.46;25.92;98695.00;6161060;28;97511;-61
2021/07/07 08:50:41;;;;;;;;;12.60;11.60;;;;;38.66;25.86;98690.41;6163871;28;97262;-59
2021/07/07 08:53:45;;;;;;;;;12.00;11.00;;;;;38.82;24.92;98696.34;6162314;28;97133;-61
2021/07/07 08:56:49;;;;;;;;;12.00;11.00;;;;;38.86;23.85;98696.31;6156164;28;97356;-59
2021/07/07 08:59:52;;;;;;;;;8.00;8.00;;;;;38.75;22.70;98699.22;6160661;28;96618;-61
2021/07/07 09:02:59;;;;;;;;;8.00;8.00;;;;;38.60;22.56;98694.91;6163370;28;96967;-60
2021/07/07 09:06:05;;;;;;;;;11.00;9.75;;;;;38.54;23.12;98700.19;6161835;28;97519;-61
2021/07/07 09:09:08;;;;;;;;;9.00;9.00;;;;;38.58;21.93;98702.97;6163247;28;96671;-60
2021/07/07 09:12:21;;;;;;;;;10.00;10.00;;;;;38.56;23.15;98703.38;6163542;28;98154;-60
2021/07/07 09:15:24;;;;;;;;;11.00;11.00;;;;;38.46;23.30;98701.44;6160454;28;96581;-61
2021/07/07 09:18:34;;;;;;;;;10.60;9.60;;;;;38.53;25.07;98704.22;6160166;28;97902;-61
2021/07/07 09:21:50;;;;;;;;;9.60;8.00;;;;;38.86;23.16;98702.75;6161914;28;97410;-61
2021/07/07 09:25:01;;;;;;;;;10.60;10.00;;;;;39.11;23.34;98701.75;6163207;28;96716;-58
2021/07/07 09:28:15;;;;;;;;;11.00;11.00;;;;;39.47;23.69;98699.41;6159325;28;97518;-59
2021/07/07 09:31:31;;;;;;;;;10.00;10.00;;;;;39.74;22.65;98708.78;6155328;28;96704;-57
2021/07/07 09:34:38;;;;;;;;;10.00;9.00;;;;;39.88;21.71;98708.63;6151928;28;97442;-57
2021/07/07 09:37:48;;;;;;;;;10.00;10.00;;;;;39.62;22.07;98710.13;6162048;28;97116;-59
2021/07/07 09:40:51;;;;;;;;;11.00;10.00;;;;;39.69;22.77;98710.03;6161327;28;96936;-58
2021/07/07 09:43:57;;;;;;;;;9.00;9.00;;;;;39.69;21.64;98712.06;6152463;28;96750;-59
2021/07/07 09:47:04;;;;;;;;;9.80;8.80;;;;;39.98;22.85;98721.03;6160638;28;97787;-59
2021/07/07 09:50:12;;;;;;;;;9.20;9.20;;;;;40.14;21.33;98713.56;6152079;28;97730;-59
2021/07/07 09:53:16;;;;;;;;;12.00;11.50;;;;;40.34;21.07;98716.53;6160227;28;97277;-58
2021/07/07 09:56:20;;;;;;;;;10.00;10.00;;;;;40.47;21.33;98719.56;6160063;28;97536;-58
2021/07/07 09:59:25;;;;;;;;;12.60;12.00;;;;;40.68;23.16;98727.78;6160708;28;96842;-59
2021/07/07 10:02:29;;;;;;;;;12.75;12.75;;;;;40.93;23.85;98718.91;6150469;28;96575;-59
2021/07/07 10:05:39;;;;;;;;;14.00;14.00;;;;;41.03;23.16;98709.47;6142492;28;96778;-58
2021/07/07 10:08:44;;;;;;;;;13.75;12.75;;;;;40.90;23.40;98719.75;6159525;28;96574;-59
2021/07/07 10:11:49;;;;;;;;;12.25;12.25;;;;;40.59;22.98;98722.63;6158908;28;97721;-59
2021/07/07 10:14:52;;;;;;;;;13.50;13.00;;;;;40.33;23.27;98719.78;6158936;28;97605;-58
2021/07/07 10:17:55;;;;;;;;;14.00;13.75;;;;;40.36;23.35;98714.09;6161676;28;98102;-59
2021/07/07 10:21:00;;;;;;;;;13.00;13.00;;;;;40.34;23.10;98719.38;6160924;28;97033;-59
2021/07/07 10:24:04;;;;;;;;;12.00;12.00;;;;;40.29;23.22;98719.03;6162223;28;97238;-59
2021/07/07 10:27:09;;;;;;;;;14.00;14.00;;;;;40.22;23.19;98717.91;6161174;28;97521;-59
2021/07/07 10:30:14;;;;;;;;;12.00;11.00;;;;;40.46;22.73;98709.53;6161156;28;98081;-58
2021/07/07 10:33:19;;;;;;;;;14.00;13.00;;;;;40.48;22.69;98718.34;6162173;28;98174;-59
2021/07/07 10:36:25;;;;;;;;;13.00;12.00;;;;;40.29;21.99;98719.84;6161792;28;97456;-59
2021/07/07 10:39:29;;;;;;;;;12.60;12.00;;;;;40.38;23.92;98724.94;6161391;28;96653;-59
2021/07/07 10:42:43;;;;;;;;;13.00;13.00;;;;;40.46;22.35;98724.44;6162930;28;97407;-60
2021/07/07 10:45:47;;;;;;;;;11.50;11.50;;;;;40.29;22.92;98719.03;6162907;28;97497;-58
2021/07/07 10:48:52;;;;;;;;;14.00;14.00;;;;;39.97;22.31;98720.25;6161832;28;97230;-59
2021/07/07 10:51:59;;;;;;;;;14.00;13.80;;;;;39.26;22.69;98720.16;6161639;28;98197;-58
2021/07/07 10:55:04;;;;;;;;;13.00;13.00;;;;;39.36;23.99;98719.28;6162641;28;96611;-59
2021/07/07 10:58:23;;;;;;;;;12.80;12.00;;;;;39.31;24.35;98717.69;6162648;28;97523;-59
2021/07/07 11:01:38;;;;;;;;;14.00;13.00;;;;;39.31;24.20;98711.22;6162446;28;96650;-59
2021/07/07 11:04:43;;;;;;;;;14.00;13.00;;;;;39.50;24.69;98704.22;6163101;28;97194;-60
2021/07/07 11:07:48;;;;;;;;;15.00;14.00;;;;;39.66;25.08;98705.25;6162898;28;97141;-60
2021/07/07 11:10:54;;;;;;;;;12.60;12.60;;;;;39.73;24.13;98707.97;6161922;28;97453;-60
2021/07/07 11:13:58;;;;;;;;;13.00;12.00;;;;;39.87;24.92;98709.88;6162478;28;96936;-60
2021/07/07 11:17:13;;;;;;;;;14.25;14.00;;;;;39.95;23.26;98711.38;6162550;28;97201;-59
2021/07/07 11:20:18;;;;;;;;;14.00;13.00;;;;;39.86;24.90;98713.91;6162150;28;97093;-58
2021/07/07 11:23:23;;;;;;;;;13.00;13.00;;;;;40.08;24.02;98715.25;6161848;28;96585;-60
2021/07/07 11:26:26;;;;;;;;;15.00;14.00;;;;;40.37;24.62;98712.06;6162311;28;97820;-58
2021/07/07 11:29:30;;;;;;;;;13.60;13.40;;;;;40.48;23.42;98715.53;6148972;28;97770;-58
2021/07/07 11:32:36;;;;;;;;;16.00;14.00;;;;;40.48;23.23;98712.69;6166170;28;97480;-59
2021/07/07 11:35:41;;;;;;;;;13.00;12.00;;;;;40.09;22.82;98708.38;6165636;28;97487;-58
2021/07/07 11:38:46;;;;;;;;;12.40;12.00;;;;;39.63;23.43;98702.47;6166575;28;97414;-60
2021/07/07 11:42:04;;;;;;;;;13.00;12.50;;;;;39.64;24.11;98702.03;6165354;28;96747;-59
2021/07/07 11:45:08;;;;;;;;;13.40;13.00;;;;;39.37;23.63;98706.78;6165270;28;97431;-59
2021/07/07 11:48:17;;;;;;;;;13.00;12.00;;;;;39.40;23.99;98708.75;6161225;28;96676;-60
2021/07/07 11:51:21;;;;;;;;;12.50;11.50;;;;;39.57;24.69;98704.16;6165759;28;96676;-59
2021/07/07 11:54:26;;;;;;;;;11.00;10.20;;;;;39.89;24.37;98706.63;6165066;28;96598;-59
2021/07/07 11:57:29;;;;;;;;;11.25;10.25;;;;;40.02;23.27;98711.31;6165090;28;96959;-59
2021/07/07 12:00:37;;;;;;;;;12.00;11.25;;;;;40.23;23.30;98699.72;6165243;28;96686;-58
2021/07/07 12:03:40;;;;;;;;;15.00;14.00;;;;;39.95;23.93;98702.91;6147962;28;96694;-59
2021/07/07 12:06:45;;;;;;;;;13.00;13.00;;;;;39.76;24.51;98698.72;6165558;28;96555;-60
2021/07/07 12:09:50;;;;;;;;;16.40;14.00;;;;;39.67;24.18;98703.22;6165491;28;97432;-59
2021/07/07 12:12:53;;;;;;;;;12.00;11.80;;;;;39.92;23.88;98703.78;6158916;28;96628;-59
2021/07/07 12:16:17;;;;;;;;;18.00;17.00;;;;;40.21;23.91;98705.03;6157821;28;97026;-59
2021/07/07 12:19:21;;;;;;;;;12.00;11.00;;;;;40.51;23.94;98707.03;6141927;28;97693;-58
2021/07/07 12:22:24;;;;;;;;;13.80;13.00;;;;;40.71;23.20;98700.69;6158941;28;96640;-58
2021/07/07 12:25:29;;;;;;;;;13.00;12.00;;;;;40.81;23.72;98711.81;6161144;28;96589;-58
2021/07/07 12:28:32;;;;;;;;;12.60;12.00;;;;;40.90;22.45;98717.75;6141440;28;96638;-59
2021/07/07 12:31:38;;;;;;;;;14.00;14.00;;;;;40.97;22.14;98713.97;6149556;28;97486;-60
2021/07/07 12:34:43;;;;;;;;;12.00;12.00;;;;;40.79;21.42;98708.63;6153899;28;96658;-59
2021/07/07 12:37:47;;;;;;;;;11.00;11.00;;;;;40.71;22.27;98712.81;6161469;28;97602;-59
2021/07/07 12:40:57;;;;;;;;;13.60;13.00;;;;;40.67;23.49;98714.84;6162115;28;97505;-60
2021/07/07 12:44:08;;;;;;;;;13.00;13.00;;;;;40.80;22.93;98710.22;6160290;28;97444;-60
2021/07/07 12:47:16;;;;;;;;;14.00;13.00;;;;;40.78;23.08;98717.53;6163488;28;97339;-62
2021/07/07 12:50:22;;;;;;;;;15.60;15.00;;;;;40.64;22.71;98713.69;6156618;28;97151;-60
2021/07/07 12:53:33;;;;;;;;;14.00;14.00;;;;;40.65;22.62;98706.03;6136961;28;96566;-59
2021/07/07 12:56:37;;;;;;;;;13.00;12.20;;;;;40.29;22.82;98717.00;6134823;28;96690;-59
2021/07/07 12:59:54;;;;;;;;;13.00;12.00;;;;;40.04;22.43;98714.50;6160643;28;97906;-58
2021/07/07 13:02:59;;;;;;;;;12.00;11.80;;;;;40.02;22.91;98721.78;6159772;28;97056;-60
2021/07/07 13:06:04;;;;;;;;;11.80;11.80;;;;;40.12;23.54;98718.84;6160153;28;98106;-59
2021/07/07 13:09:09;;;;;;;;;14.60;13.00;;;;;40.07;22.51;98724.16;6162689;28;97149;-59
2021/07/07 13:12:13;;;;;;;;;13.00;12.60;;;;;39.92;22.36;98717.88;6158705;28;96588;-60
2021/07/07 13:15:16;;;;;;;;;14.00;14.00;;;;;39.48;22.77;98730.03;6162630;28;96878;-58
2021/07/07 13:18:20;;;;;;;;;14.60;12.60;;;;;39.59;23.47;98721.44;6144919;28;97419;-60
2021/07/07 13:21:31;;;;;;;;;13.20;13.00;;;;;39.69;23.63;98726.16;6155175;28;96709;-59
2021/07/07 13:24:35;;;;;;;;;13.00;12.60;;;;;39.80;23.21;98721.25;6155422;28;96455;-58
2021/07/07 13:27:40;;;;;;;;;11.80;11.80;;;;;39.70;23.50;98722.13;6144409;28;98503;-59
2021/07/07 13:30:43;;;;;;;;;12.60;12.00;;;;;39.65;21.76;98725.41;6160263;28;96744;-59
2021/07/07 13:33:46;;;;;;;;;14.00;13.00;;;;;39.63;23.17;98723.03;6159533;28;96699;-60
2021/07/07 13:36:50;;;;;;;;;14.00;13.00;;;;;39.66;22.86;98719.38;6150682;28;97444;-60
2021/07/07 13:39:54;;;;;;;;;13.00;12.00;;;;;39.62;23.92;98710.13;6147068;28;97944;-59
2021/07/07 13:42:59;;;;;;;;;12.00;11.80;;;;;39.79;22.93;98711.97;6150294;28;97010;-59
2021/07/07 13:46:02;;;;;;;;;13.00;13.00;;;;;39.87;22.45;98721.16;6154606;28;97724;-58
2021/07/07 13:49:05;;;;;;;;;12.00;12.00;;;;;39.70;23.46;98722.94;6152647;28;96555;-58
2021/07/07 13:52:09;;;;;;;;;11.00;10.25;;;;;39.47;23.29;98722.78;6163864;28;97487;-58
2021/07/07 13:55:12;;;;;;;;;12.00;11.40;;;;;39.31;22.85;98714.84;6131494;28;96610;-59
2021/07/07 13:58:17;;;;;;;;;13.80;13.00;;;;;39.14;23.71;98715.84;6154883;28;96551;-59
2021/07/07 14:01:20;;;;;;;;;12.60;12.60;;;;;39.09;23.78;98709.84;6155357;28;96738;-59
2021/07/07 14:04:24;;;;;;;;;14.75;13.25;;;;;39.10;23.90;98709.41;6147764;28;97416;-59
2021/07/07 14:07:27;;;;;;;;;12.00;12.00;;;;;39.14;23.78;98718.66;6146915;28;97494;-58
2021/07/07 14:10:31;;;;;;;;;12.00;11.40;;;;;39.07;23.70;98715.91;6147705;28;97484;-60